createdAt,value
2018-10-21T00:04:51.211Z,28.70
2018-10-21T00:22:09.362Z,36.50
2018-10-21T01:13:01.372Z,30.23
2018-10-21T01:20:26.198Z,30.55
2018-10-21T01:22:55.011Z,29.12
2018-10-21T01:25:23.916Z,38.13
2018-10-21T01:27:52.715Z,30.23
2018-10-21T01:30:21.606Z,33.48
2018-10-21T01:32:50.397Z,33.30
2018-10-21T01:35:19.401Z,32.10
2018-10-21T01:37:48.208Z,34.78
2018-10-21T01:40:48.107Z,29.75
2018-10-21T01:43:18.011Z,36.40
2018-10-21T01:45:47.471Z,38.00
2018-10-21T01:48:17.631Z,27.52
2018-10-21T01:50:46.593Z,34.80
2018-10-21T01:53:16.339Z,33.23
2018-10-21T01:55:45.019Z,37.48
2018-10-21T01:58:13.948Z,34.08
2018-10-21T02:00:43.283Z,36.10
2018-10-21T02:03:13.640Z,39.45
2018-10-21T04:40:15.466Z,72.27
2018-10-21T04:42:44.743Z,63.90
2018-10-21T04:45:15.098Z,65.95
2018-10-21T04:47:44.077Z,76.57
2018-10-21T04:50:13.474Z,71.60
2018-10-21T04:52:42.487Z,64.53
2018-10-21T04:55:13.498Z,71.53
2018-10-21T04:57:43.647Z,72.00
2018-10-21T05:00:14.233Z,68.95
2018-10-21T05:02:43.167Z,73.52
2018-10-21T05:05:13.313Z,72.05
2018-10-21T05:07:42.291Z,75.25
2018-10-21T05:10:36.769Z,69.20
2018-10-21T05:13:06.716Z,68.85
2018-10-21T05:15:36.694Z,67.32
2018-10-21T05:18:06.093Z,69.15
2018-10-21T05:20:34.818Z,70.87
2018-10-21T05:23:04.582Z,77.27
2018-10-21T05:25:33.328Z,66.87
2018-10-21T05:28:02.319Z,69.58
2018-10-21T05:30:31.114Z,69.62
2018-10-21T05:33:00.252Z,65.67
2018-10-21T05:35:28.963Z,74.22
2018-10-21T05:37:57.898Z,72.95
2018-10-21T05:40:27.035Z,73.37
2018-10-21T05:42:55.815Z,68.22
2018-10-21T05:49:07.128Z,69.12
2018-10-21T05:51:37.300Z,65.30
2018-10-21T05:54:06.743Z,72.90
2018-10-21T05:56:35.782Z,69.40
2018-10-21T05:59:04.936Z,64.87
2018-10-21T06:01:34.023Z,73.35
2018-10-21T06:04:02.820Z,67.45
2018-10-21T06:06:31.645Z,70.80
2018-10-21T06:09:00.641Z,67.53
2018-10-21T06:11:29.700Z,71.75
2018-10-21T06:13:58.794Z,69.67
2018-10-21T06:16:28.522Z,71.45
2018-10-21T06:19:01.703Z,66.97
2018-10-21T06:21:30.481Z,71.47
2018-10-21T06:23:59.816Z,79.27
2018-10-21T06:26:28.777Z,73.20
2018-10-21T06:28:57.627Z,72.08
2018-10-21T06:31:26.455Z,69.65
2018-10-21T06:33:55.469Z,71.35
2018-10-21T06:36:25.401Z,73.83
2018-10-21T06:38:54.510Z,68.15
2018-10-21T06:41:23.714Z,76.65
2018-10-21T06:43:52.580Z,71.07
2018-10-21T06:46:21.446Z,74.15
2018-10-21T06:48:50.744Z,67.45
2018-10-21T06:51:19.543Z,64.30
2018-10-21T06:53:48.325Z,67.42
2018-10-21T06:56:17.086Z,70.60
2018-10-21T06:58:46.089Z,78.78
2018-10-21T07:01:16.041Z,60.43
2018-10-21T07:03:44.881Z,67.78
2018-10-21T07:06:17.901Z,64.37
2018-10-21T07:08:47.324Z,58.68
2018-10-21T07:11:16.403Z,57.38
2018-10-21T07:13:45.383Z,58.20
2018-10-21T07:16:15.504Z,63.48
2018-10-21T07:18:46.238Z,54.88
2018-10-21T07:21:15.135Z,60.67
2018-10-21T07:23:44.123Z,51.83
2018-10-21T07:26:13.018Z,51.70
2018-10-21T07:28:41.797Z,58.50
2018-10-21T07:31:11.683Z,52.10
2018-10-21T07:33:40.548Z,54.23
2018-10-21T07:36:09.662Z,55.27
2018-10-21T07:38:38.464Z,51.30
2018-10-21T07:41:07.245Z,57.33
2018-10-21T07:43:36.275Z,50.63
2018-10-21T07:46:05.183Z,53.53
2018-10-21T07:48:34.149Z,56.87
2018-10-21T07:51:02.855Z,54.10
2018-10-21T07:53:31.647Z,59.13
2018-10-21T07:56:00.820Z,50.70
2018-10-21T07:58:29.768Z,52.87
2018-10-21T08:00:59.185Z,45.37
2018-10-21T08:03:29.035Z,50.87
2018-10-21T08:06:21.364Z,47.90
2018-10-21T08:08:50.487Z,42.90
2018-10-21T08:11:20.613Z,39.60
2018-10-21T08:13:49.454Z,46.37
2018-10-21T08:16:18.275Z,41.30
2018-10-21T08:18:46.733Z,43.10
2018-10-21T08:21:15.628Z,45.40
2018-10-21T08:23:44.421Z,45.73
2018-10-21T08:26:13.558Z,64.13
2018-10-21T08:28:42.693Z,50.53
2018-10-21T08:31:11.442Z,46.90
2018-10-21T08:33:40.243Z,40.33
2018-10-21T08:36:09.438Z,37.13
2018-10-21T08:38:38.335Z,44.03
2018-10-21T08:41:07.117Z,41.00
2018-10-21T08:43:37.247Z,38.77
2018-10-21T08:46:06.335Z,40.53
2018-10-21T08:48:35.181Z,40.83
2018-10-21T08:51:04.084Z,37.37
2018-10-21T08:53:32.787Z,46.97
2018-10-21T08:56:01.627Z,39.80
2018-10-21T08:58:30.416Z,38.50
2018-10-21T09:00:59.577Z,46.10
2018-10-21T09:03:28.931Z,46.93
2018-10-21T09:05:58.095Z,42.63
2018-10-21T09:08:26.937Z,46.73
2018-10-21T09:10:56.112Z,42.80
2018-10-21T09:13:25.216Z,43.23
2018-10-21T09:15:54.047Z,42.07
2018-10-21T09:18:23.037Z,40.33
2018-10-21T09:20:52.155Z,46.93
2018-10-21T09:23:21.313Z,47.77
2018-10-21T09:25:49.947Z,42.30
2018-10-21T09:28:19.305Z,30.80
2018-10-21T09:30:48.405Z,39.00
2018-10-21T09:33:18.850Z,39.23
2018-10-21T09:35:47.841Z,40.17
2018-10-21T09:38:16.833Z,39.40
2018-10-21T09:40:46.187Z,44.37
2018-10-21T09:43:15.502Z,33.50
2018-10-21T09:45:44.285Z,32.63
2018-10-21T09:48:13.406Z,30.13
2018-10-21T09:50:42.564Z,36.20
2018-10-21T09:53:11.701Z,49.17
2018-10-21T09:55:40.588Z,38.10
2018-10-21T09:58:09.633Z,29.80
2018-10-21T10:00:43.791Z,32.70
2018-10-21T10:03:12.965Z,32.87
2018-10-21T10:05:42.158Z,32.90
2018-10-21T10:08:11.525Z,30.70
2018-10-21T10:10:40.730Z,37.53
2018-10-21T10:13:09.803Z,35.80
2018-10-21T10:15:39.077Z,38.60
2018-10-21T10:18:08.326Z,31.57
2018-10-21T10:20:37.333Z,36.27
2018-10-21T10:23:07.242Z,34.60
2018-10-21T10:25:36.002Z,37.90
2018-10-21T10:28:04.684Z,36.50
2018-10-21T10:30:33.997Z,36.10
2018-10-21T10:33:02.870Z,32.40
2018-10-21T10:35:31.732Z,35.93
2018-10-21T10:38:00.856Z,39.93
2018-10-21T10:40:29.872Z,38.70
2018-10-21T10:42:58.799Z,35.57
2018-10-21T10:45:27.595Z,34.10
2018-10-21T10:47:57.231Z,30.87
2018-10-21T10:50:26.855Z,33.20
2018-10-21T10:52:56.730Z,31.90
2018-10-21T10:55:30.540Z,35.73
2018-10-21T10:57:59.523Z,29.23
2018-10-21T11:00:28.513Z,33.40
2018-10-21T11:02:57.602Z,43.53
2018-10-21T11:05:27.354Z,44.30
2018-10-21T11:07:57.266Z,31.30
2018-10-21T11:10:27.427Z,44.60
2018-10-21T11:12:57.032Z,32.63
2018-10-21T11:15:25.881Z,34.20
2018-10-21T11:17:54.639Z,34.00
2018-10-21T11:20:24.049Z,34.40
2018-10-21T11:22:53.830Z,34.43
2018-10-21T11:25:22.668Z,34.50
2018-10-21T11:27:52.396Z,27.40
2018-10-21T11:30:21.143Z,32.13
2018-10-21T11:32:50.135Z,27.70
2018-10-21T11:35:19.216Z,30.30
2018-10-21T11:37:48.032Z,39.23
2018-10-21T11:40:17.973Z,37.77
2018-10-21T11:42:47.062Z,30.40
2018-10-21T11:45:16.539Z,43.90
2018-10-21T11:47:45.690Z,26.70
2018-10-21T11:50:15.317Z,30.70
2018-10-21T11:52:44.295Z,39.90
2018-10-21T11:55:13.838Z,33.97
2018-10-21T11:57:42.909Z,29.87
2018-10-21T12:00:11.933Z,30.03
2018-10-21T12:02:40.853Z,28.70
2018-10-21T12:05:10.350Z,25.43
2018-10-21T12:07:39.378Z,28.50
2018-10-21T12:10:08.802Z,25.37
2018-10-21T12:12:37.444Z,25.70
2018-10-21T12:15:06.580Z,33.77
2018-10-21T12:17:35.393Z,25.70
2018-10-21T12:20:04.518Z,33.73
2018-10-21T12:22:33.166Z,27.47
2018-10-21T12:25:01.781Z,28.50
2018-10-21T12:27:30.711Z,26.40
2018-10-21T12:29:59.855Z,23.97
2018-10-21T12:32:30.173Z,18.13
2018-10-21T12:34:59.861Z,25.37
2018-10-21T12:37:30.362Z,22.30
2018-10-21T12:40:00.611Z,27.57
2018-10-21T12:42:30.805Z,25.03
2018-10-21T12:45:01.219Z,25.80
2018-10-21T12:47:32.166Z,27.67
2018-10-21T12:50:01.221Z,26.77
2018-10-21T12:52:32.594Z,22.40
2018-10-21T12:55:04.620Z,24.07
2018-10-21T12:57:34.321Z,25.93
2018-10-21T13:00:03.486Z,21.57
2018-10-21T13:02:32.550Z,18.73
2018-10-21T13:05:01.736Z,17.70
2018-10-21T13:07:31.663Z,19.60
2018-10-21T13:10:04.879Z,17.97
2018-10-21T13:12:34.000Z,17.23
2018-10-21T13:15:04.220Z,19.97
2018-10-21T13:17:34.581Z,16.87
2018-10-21T13:20:05.870Z,16.50
2018-10-21T13:22:35.050Z,19.07
2018-10-21T13:25:04.495Z,15.53
2018-10-21T13:27:35.416Z,15.90
2018-10-21T13:30:06.108Z,16.13
2018-10-21T13:32:35.233Z,15.07
2018-10-21T13:35:03.922Z,19.87
2018-10-21T13:37:32.510Z,17.40
2018-10-21T13:40:01.263Z,16.50
2018-10-21T13:42:29.783Z,17.90
2018-10-21T13:44:58.846Z,20.93
2018-10-21T13:47:29.467Z,21.40
2018-10-21T13:49:58.280Z,17.20
2018-10-21T13:52:27.206Z,15.50
2018-10-21T13:54:56.465Z,15.67
2018-10-21T13:57:29.034Z,17.67
2018-10-21T13:59:59.726Z,15.73
2018-10-21T14:02:33.149Z,16.33
2018-10-21T14:05:02.196Z,18.30
2018-10-21T14:07:31.457Z,14.67
2018-10-21T14:10:04.180Z,14.60
2018-10-21T14:12:36.679Z,15.40
2018-10-21T14:15:09.568Z,14.20
2018-10-21T14:17:38.637Z,17.30
2018-10-21T14:22:55.277Z,16.37
2018-10-21T14:25:29.965Z,11.97
2018-10-21T14:28:00.913Z,14.37
2018-10-21T14:30:34.297Z,16.33
2018-10-21T14:33:03.715Z,12.57
2018-10-21T14:35:33.166Z,20.83
2018-10-21T14:38:04.176Z,13.43
2018-10-21T14:40:35.019Z,20.53
2018-10-21T14:43:05.968Z,19.53
2018-10-21T14:45:37.507Z,18.87
2018-10-21T14:48:07.488Z,21.77
2018-10-21T14:50:39.071Z,16.03
2018-10-21T14:53:08.831Z,39.47
2018-10-21T14:55:40.119Z,15.10
2018-10-21T14:58:12.337Z,15.53
2018-10-21T15:00:44.245Z,25.60
2018-10-21T15:03:18.581Z,19.60
2018-10-21T15:05:48.892Z,21.60
2018-10-21T15:08:20.631Z,16.10
2018-10-21T15:10:50.350Z,14.63
2018-10-21T15:13:21.283Z,15.60
2018-10-21T15:15:50.204Z,14.07
2018-10-21T15:18:20.786Z,15.97
2018-10-21T15:20:50.398Z,27.37
2018-10-21T15:23:19.252Z,16.43
2018-10-21T15:25:49.491Z,13.17
2018-10-21T15:28:21.181Z,16.20
2018-10-21T15:30:50.334Z,29.13
2018-10-21T15:33:19.331Z,16.77
2018-10-21T15:35:48.206Z,25.30
2018-10-21T15:38:16.911Z,23.03
2018-10-21T15:40:45.856Z,20.47
2018-10-21T15:43:14.585Z,13.13
2018-10-21T15:45:43.384Z,24.30
2018-10-21T15:48:12.331Z,26.10
2018-10-21T15:50:42.106Z,20.50
2018-10-21T15:53:13.403Z,14.93
2018-10-21T15:55:42.848Z,17.30
2018-10-21T15:58:13.593Z,13.93
2018-10-21T16:00:42.934Z,14.80
2018-10-21T16:03:12.605Z,15.17
2018-10-21T16:05:42.417Z,20.07
2018-10-21T16:08:12.631Z,19.23
2018-10-21T16:10:41.618Z,29.40
2018-10-21T16:13:10.991Z,18.27
2018-10-21T16:15:40.611Z,24.63
2018-10-21T16:18:09.539Z,47.50
2018-10-21T16:20:38.640Z,17.90
2018-10-21T16:23:07.631Z,21.93
2018-10-21T16:25:36.723Z,38.70
2018-10-21T16:28:07.291Z,59.73
2018-10-21T16:30:36.705Z,26.50
2018-10-21T16:33:05.919Z,27.90
2018-10-21T16:35:34.916Z,23.10
2018-10-21T16:38:04.066Z,23.20
2018-10-21T16:40:33.051Z,21.30
2018-10-21T16:43:02.576Z,18.23
2018-10-21T16:45:31.827Z,24.03
2018-10-21T16:48:00.980Z,26.47
2018-10-21T16:50:29.857Z,29.07
2018-10-21T16:53:00.249Z,24.60
2018-10-21T16:55:28.969Z,25.53
2018-10-21T16:57:57.878Z,17.83
2018-10-21T17:00:26.962Z,16.27
2018-10-21T17:02:56.513Z,22.03
2018-10-21T17:05:25.427Z,24.43
2018-10-21T17:07:54.501Z,26.03
2018-10-21T17:10:23.743Z,23.00
2018-10-21T17:12:52.578Z,29.33
2018-10-21T17:15:21.728Z,25.80
2018-10-21T17:17:50.842Z,25.10
2018-10-21T17:20:19.494Z,30.27
2018-10-21T17:22:48.337Z,25.33
2018-10-21T17:25:17.133Z,21.63
2018-10-21T17:27:45.863Z,20.90
2018-10-21T17:30:16.131Z,27.80
2018-10-21T17:32:45.296Z,29.57
2018-10-21T17:35:14.468Z,23.13
2018-10-21T17:37:43.356Z,29.70
2018-10-21T17:40:30.982Z,22.70
2018-10-21T17:43:00.413Z,20.20
2018-10-21T17:45:29.599Z,22.83
2018-10-21T17:47:58.494Z,21.50
2018-10-21T17:50:27.419Z,20.33
2018-10-21T17:52:56.132Z,22.93
2018-10-21T17:55:24.875Z,26.73
2018-10-21T17:57:53.784Z,32.33
2018-10-21T18:00:22.657Z,28.10
2018-10-21T18:02:51.654Z,22.30
2018-10-21T18:05:21.752Z,24.00
2018-10-21T18:07:50.758Z,25.27
2018-10-21T18:10:19.848Z,22.87
2018-10-21T18:12:48.520Z,25.33
2018-10-21T18:15:17.431Z,21.20
2018-10-21T18:17:46.045Z,29.90
2018-10-21T18:20:14.927Z,25.97
2018-10-21T18:22:43.717Z,25.10
2018-10-21T18:25:12.442Z,28.43
2018-10-21T18:27:41.807Z,20.60
2018-10-21T18:30:11.544Z,25.60
2018-10-21T18:32:40.570Z,30.97
2018-10-21T18:35:11.209Z,21.20
2018-10-21T18:37:39.824Z,24.13
2018-10-21T18:40:09.807Z,25.33
2018-10-21T18:42:38.806Z,24.90
2018-10-21T18:45:10.441Z,25.13
2018-10-21T18:47:39.420Z,23.43
2018-10-21T18:50:10.114Z,30.57
2018-10-21T18:52:39.105Z,28.90
2018-10-21T18:55:08.617Z,24.60
2018-10-21T18:57:37.710Z,29.83
2018-10-21T19:00:16.505Z,21.53
2018-10-21T19:02:45.331Z,24.47
2018-10-21T19:05:14.622Z,28.47
2018-10-21T19:07:43.501Z,26.53
2018-10-21T19:10:14.557Z,26.87
2018-10-21T19:12:43.152Z,27.10
2018-10-21T19:15:12.845Z,25.00
2018-10-21T19:17:41.872Z,30.30
2018-10-21T19:20:16.180Z,24.07
2018-10-21T19:22:44.850Z,21.68
2018-10-21T19:25:14.925Z,34.43
2018-10-21T19:27:44.228Z,24.63
2018-10-21T19:30:13.584Z,24.30
2018-10-21T19:32:42.674Z,23.83
2018-10-21T19:35:12.428Z,30.63
2018-10-21T19:37:41.151Z,28.03
2018-10-21T19:40:12.724Z,28.75
2018-10-21T19:42:42.013Z,25.03
2018-10-21T19:45:11.700Z,24.93
2018-10-21T19:47:40.543Z,28.33
2018-10-21T19:50:10.765Z,34.63
2018-10-21T19:52:40.057Z,31.63
2018-10-21T19:55:08.921Z,32.13
2018-10-21T19:57:37.844Z,26.20
2018-10-21T20:00:08.676Z,27.83
2018-10-21T20:02:37.291Z,26.00
2018-10-21T20:05:06.667Z,28.03
2018-10-21T20:07:35.425Z,25.90
2018-10-21T20:10:04.683Z,27.10
2018-10-21T20:12:33.293Z,38.53
2018-10-21T20:15:01.990Z,31.60
2018-10-21T20:18:33.512Z,28.00
2018-10-21T20:21:02.173Z,31.00
2018-10-21T20:23:30.768Z,30.00
2018-10-21T20:25:59.305Z,29.77
2018-10-21T20:28:27.933Z,26.13
2018-10-21T20:30:56.520Z,27.50
2018-10-21T20:33:25.113Z,26.87
2018-10-21T20:35:53.687Z,26.33
2018-10-21T20:38:22.410Z,22.90
2018-10-21T20:40:51.118Z,26.93
2018-10-21T20:43:19.697Z,26.63
2018-10-21T20:47:17.694Z,27.67
2018-10-21T20:49:46.362Z,28.30
2018-10-21T20:52:14.923Z,27.60
2018-10-21T20:54:45.471Z,27.43
2018-10-21T20:57:14.399Z,31.50
2018-10-21T20:59:43.976Z,27.43
2018-10-21T21:02:13.684Z,25.83
2018-10-21T21:04:42.229Z,22.13
2018-10-21T21:07:11.100Z,24.47
2018-10-21T21:09:40.485Z,23.07
2018-10-21T21:12:08.969Z,25.57
2018-10-21T21:14:37.495Z,23.33
2018-10-21T21:17:06.106Z,26.60
2018-10-21T21:19:34.681Z,26.00
2018-10-21T21:22:03.280Z,25.43
2018-10-21T21:24:31.740Z,28.53
2018-10-21T21:27:00.299Z,26.50
2018-10-21T21:29:28.684Z,29.07
2018-10-21T21:31:57.178Z,23.93
2018-10-21T21:34:25.793Z,25.03
2018-10-21T21:36:55.403Z,25.50
2018-10-21T21:39:24.000Z,25.67
2018-10-21T21:41:52.513Z,30.10
2018-10-21T21:44:20.965Z,26.40
2018-10-21T21:46:49.705Z,31.43
2018-10-21T21:49:18.181Z,23.97
2018-10-21T21:51:46.906Z,32.40
2018-10-21T21:54:15.830Z,31.53
2018-10-21T21:56:46.459Z,29.90
2018-10-21T21:59:15.305Z,30.83
2018-10-21T22:01:45.541Z,30.30
2018-10-21T22:04:14.464Z,28.43
2018-10-21T22:06:43.084Z,26.50
2018-10-21T22:09:13.442Z,31.40
2018-10-21T22:11:42.072Z,31.77
2018-10-21T22:14:11.092Z,27.73
2018-10-21T22:16:39.778Z,30.63
2018-10-21T22:19:13.669Z,26.27
2018-10-21T22:21:42.223Z,27.58
2018-10-21T22:24:11.091Z,28.77
2018-10-21T22:26:39.796Z,30.53
2018-10-21T22:29:10.739Z,27.83
2018-10-21T22:31:39.748Z,27.02
2018-10-21T22:34:08.455Z,27.60
2018-10-21T22:36:37.126Z,29.60
2018-10-21T22:39:06.800Z,30.37
2018-10-21T22:41:35.688Z,26.77
2018-10-21T22:44:04.574Z,35.00
2018-10-21T22:46:33.459Z,31.82
2018-10-21T22:49:02.276Z,29.12
2018-10-21T22:51:30.913Z,27.10
2018-10-21T22:53:59.753Z,27.75
2018-10-21T22:56:28.651Z,29.80
2018-10-21T22:58:57.256Z,30.48
2018-10-21T23:01:25.940Z,32.33
2018-10-21T23:03:54.946Z,31.62
2018-10-21T23:06:23.618Z,36.33
2018-10-21T23:08:52.439Z,31.15
2018-10-21T23:11:21.381Z,27.80
2018-10-21T23:13:50.087Z,29.85
2018-10-21T23:16:19.196Z,27.25
2018-10-21T23:18:47.874Z,28.23
2018-10-21T23:21:16.733Z,30.35
2018-10-21T23:23:45.336Z,29.35
2018-10-21T23:26:14.120Z,39.65
2018-10-21T23:28:42.951Z,24.45
2018-10-21T23:31:11.892Z,30.12
2018-10-21T23:33:40.546Z,27.77
2018-10-21T23:36:09.313Z,25.10
2018-10-21T23:38:37.952Z,30.88
2018-10-21T23:41:06.739Z,29.85
2018-10-21T23:43:35.541Z,30.52
2018-10-21T23:46:04.315Z,31.20
2018-10-21T23:48:33.171Z,25.93
2018-10-21T23:51:01.966Z,24.63
2018-10-21T23:53:30.800Z,24.23
2018-10-21T23:56:00.626Z,25.80
2018-10-21T23:58:30.912Z,27.87
